Nearby METAR Reports

 

EGVN - Brize Norton Raf, United Kingdom
Distance from station: SSE 20mi, 32km
Updated: 20/06/2018 05:50
Mostly cloudy
Mostly cloudy
 Wind from SW
Wind: SW 5 mph , 7 km/h
Temperature: 17°C
Dew Point: 15°C
Humidity: 88%
Barometer: 1020 hPa
Clouds: Mostly cloudy
Visibility: 6 miles , 10 km
Cloud details: Mostly cloudy 244 m
Mostly cloudy 457 m
2018/06/20 04:50 EGVN 200450Z 23004KT 9999 BKN008 BKN015 17/15 Q1020 TEMPO FEW008 BKN015
EGTK - Oxford, United Kingdom
Distance from station: SE 22mi, 35km
Updated: 19/06/2018 22:20
NOT Current
Mostly cloudy
Mostly cloudy
 Wind from WSW
Wind: WSW 9 mph , 15 km/h
Temperature: 18°C
Dew Point: 16°C
Humidity: 88%
Barometer: 1022 hPa
Clouds: Mostly cloudy
Visibility: 6 miles , 10 km
Cloud details: Mostly cloudy 884 m
2018/06/19 21:20 EGTK 192120Z 24008KT 9999 BKN029 18/16 Q1022
 
EGBJ - Staverton (priva, United Kingdom
Distance from station: WSW 23mi, 36km
Updated: 19/06/2018 19:20
NOT Current
Partly cloudy
Partly cloudy
 Wind from WSW
Wind: WSW 12 mph , 19 km/h
Temperature: 21°C
Dew Point: 16°C
Humidity: 73%
Barometer: 1021 hPa
Clouds: Partly cloudy
Visibility: 6 miles , 10 km
Cloud details: Partly cloudy 914 m
2018/06/19 18:20 EGBJ 191820Z 24010KT 9999 SCT030 21/16 Q1021
EGVA - Fairford Raf, United Kingdom
Distance from station: S 27mi, 43km
Updated: 20/06/2018 05:56
Overcast
Overcast
 Wind from SW
Wind: SW 9 mph , 15 km/h
Temperature: 17°C
Dew Point: 15°C
Humidity: 88%
Barometer: 1020 hPa
Clouds: Overcast
Visibility: 6 miles , 10 km
Cloud details: Few Clouds 244 m
Overcast 488 m
2018/06/20 04:56 EGVA 200456Z AUTO 23008KT 9999 FEW008 OVC016 17/15 A3012 RMK AO2 SLP201 T01660153 $
 
EGBB - Birmingham Airpo, United Kingdom
Distance from station: N 29mi, 46km
Updated: 20/06/2018 05:50
Few Clouds
Few Clouds
 Wind from SSW
Wind: SSW 10 mph , 17 km/h
Temperature: 17°C
Dew Point: 14°C
Humidity: 83%
Barometer: 1018 hPa
Clouds: Few Clouds
Visibility: 6 miles , 10 km
Cloud details: Few Clouds 427 m
2018/06/20 04:50 EGBB 200450Z 20009KT 170V240 9999 FEW014 17/14 Q1018
EGUB - Benson Raf, United Kingdom
Distance from station: SE 40mi, 65km
Updated: 20/06/2018 05:50
Mostly cloudy
Mostly cloudy
 Wind from S
Wind: S 7 mph , 11 km/h
Temperature: 15°C
Dew Point: 15°C
Humidity: 100%
Barometer: 1020 hPa
Clouds: Mostly cloudy
Visibility: 5 miles , 8 km
Cloud details: Mostly cloudy 61 m
Mostly cloudy 579 m
2018/06/20 04:50 EGUB 200450Z AUTO 19006KT 8000 // BKN002/// BKN019/// 15/15 Q1020
 
EGTC - Cranfield, United Kingdom
Distance from station: E 46mi, 74km
Updated: 19/06/2018 17:50
NOT Current
Mostly cloudy
Mostly cloudy
 Wind from WSW
Wind: WSW 9 mph , 15 km/h
Temperature: 22°C
Dew Point: 16°C
Humidity: 69%
Barometer: 1021 hPa
Clouds: Mostly cloudy
Visibility: 6 miles , 10 km
Cloud details: Partly cloudy 914 m
Mostly cloudy 1372 m
2018/06/19 16:50 EGTC 191650Z 24008KT 200V270 9999 SCT030 BKN045 22/16 Q1021
EGWC - Cosford Raf, United Kingdom
Distance from station: NNW 46mi, 75km
Updated: 19/06/2018 16:50
NOT Current
Partly cloudy
Partly cloudy
 Wind from SW
Wind: SW 12 mph , 19 km/h
Temperature: 22°C
Dew Point: 15°C
Humidity: 65%
Barometer: 1021 hPa
Clouds: Partly cloudy
Visibility: 6 miles , 10 km
Cloud details: Partly cloudy 762 m
2018/06/19 15:50 EGWC 191550Z 23010KT 9999 SCT025 22/15 Q1021 BLU